createdAt,value
2023-02-13T00:02:40.964Z,50.38
2023-02-13T00:05:26.675Z,52.50
2023-02-13T00:08:12.376Z,54.55
2023-02-13T00:10:58.497Z,50.63
2023-02-13T00:13:44.033Z,49.97
2023-02-13T00:16:29.607Z,49.03
2023-02-13T00:19:15.492Z,48.85
2023-02-13T00:22:01.035Z,43.60
2023-02-13T00:24:46.898Z,44.72
2023-02-13T00:27:32.852Z,45.47
2023-02-13T00:30:18.871Z,46.95
2023-02-13T00:33:04.926Z,48.85
2023-02-13T00:35:50.236Z,46.25
2023-02-13T00:38:37.049Z,46.38
2023-02-13T00:41:23.326Z,44.58
2023-02-13T00:44:09.688Z,47.38
2023-02-13T00:46:55.332Z,45.67
2023-02-13T00:49:41.606Z,44.05
2023-02-13T00:52:27.081Z,42.20
2023-02-13T00:55:12.895Z,41.47
2023-02-13T00:59:21.350Z,36.42
2023-02-13T01:02:06.942Z,43.17
2023-02-13T01:04:53.079Z,40.80
2023-02-13T01:07:38.567Z,42.33
2023-02-13T01:10:24.591Z,40.95
2023-02-13T01:13:11.181Z,40.30
2023-02-13T01:15:56.810Z,37.65
2023-02-13T01:18:42.742Z,36.28
2023-02-13T01:21:28.302Z,37.08
2023-02-13T01:24:13.729Z,36.90
2023-02-13T01:26:59.506Z,37.03
2023-02-13T01:29:44.696Z,36.90
2023-02-13T01:32:30.561Z,37.47
2023-02-13T01:35:16.583Z,35.60
2023-02-13T01:38:02.100Z,36.15
2023-02-13T01:40:52.721Z,34.05
2023-02-13T01:43:47.047Z,31.05
2023-02-13T01:46:43.108Z,36.72
2023-02-13T01:49:28.703Z,36.47
2023-02-13T01:52:15.643Z,38.72
2023-02-13T01:55:01.773Z,38.83
2023-02-13T01:57:55.804Z,38.90
2023-02-13T02:00:41.640Z,36.38
2023-02-13T02:03:32.305Z,33.75
2023-02-13T02:06:24.339Z,37.75
2023-02-13T02:09:18.429Z,35.70
2023-02-13T02:12:22.403Z,36.50
2023-02-13T02:17:54.061Z,42.15
2023-02-13T02:20:59.854Z,39.22
2023-02-13T02:23:57.884Z,35.08
2023-02-13T02:27:06.091Z,37.85
2023-02-13T02:30:22.530Z,38.63
2023-02-13T02:33:30.937Z,37.08
2023-02-13T02:36:52.891Z,41.80
2023-02-13T02:39:59.154Z,41.53
2023-02-13T02:42:54.586Z,40.97
2023-02-13T02:46:07.051Z,36.83
2023-02-13T02:49:18.370Z,38.55
2023-02-13T02:52:07.131Z,41.13
2023-02-13T02:55:23.260Z,40.55
2023-02-13T02:58:41.367Z,36.40
2023-02-13T03:01:48.223Z,42.20
2023-02-13T03:05:05.103Z,38.78
2023-02-13T03:07:50.818Z,38.70
2023-02-13T03:10:56.986Z,41.10
2023-02-13T03:13:47.417Z,38.95
2023-02-13T03:16:51.684Z,42.72
2023-02-13T03:20:10.918Z,40.80
2023-02-13T03:23:17.902Z,39.97
2023-02-13T03:26:46.165Z,38.38
2023-02-13T03:30:08.202Z,39.40
2023-02-13T03:33:00.594Z,40.78
2023-02-13T03:36:49.199Z,41.20
2023-02-13T03:40:02.011Z,43.42
2023-02-13T03:43:02.003Z,43.75
2023-02-13T03:45:57.410Z,43.95
2023-02-13T03:49:03.701Z,47.05
2023-02-13T03:51:52.352Z,46.15
2023-02-13T03:55:12.032Z,44.10
2023-02-13T03:58:21.621Z,41.33
2023-02-13T04:01:09.927Z,45.53
2023-02-13T04:05:06.174Z,42.15
2023-02-13T04:07:52.176Z,41.30
2023-02-13T04:10:46.787Z,43.65
2023-02-13T04:13:42.154Z,39.00
2023-02-13T04:16:35.486Z,42.38
2023-02-13T04:22:06.624Z,39.85
2023-02-13T04:24:52.582Z,41.17
2023-02-13T04:27:37.866Z,46.40
2023-02-13T04:30:25.167Z,44.70
2023-02-13T04:33:11.021Z,42.85
2023-02-13T04:35:57.100Z,41.22
2023-02-13T04:38:45.428Z,43.30
2023-02-13T04:41:31.232Z,37.63
2023-02-13T04:44:17.079Z,42.10
2023-02-13T04:47:02.920Z,41.85
2023-02-13T04:49:49.202Z,44.40
2023-02-13T04:52:34.841Z,39.63
2023-02-13T04:55:21.259Z,42.40
2023-02-13T04:58:07.170Z,43.50
2023-02-13T05:00:52.837Z,38.95
2023-02-13T05:03:38.358Z,40.33
2023-02-13T05:06:24.083Z,44.10
2023-02-13T05:09:10.753Z,41.67
2023-02-13T05:11:56.335Z,44.45
2023-02-13T05:14:41.916Z,46.53
2023-02-13T05:17:28.398Z,43.67
2023-02-13T05:20:14.846Z,44.30
2023-02-13T05:23:19.007Z,43.00
2023-02-13T05:26:07.738Z,42.25
2023-02-13T05:29:12.439Z,39.72
2023-02-13T05:31:59.981Z,39.17
2023-02-13T05:34:45.639Z,41.83
2023-02-13T05:37:32.059Z,42.65
2023-02-13T05:40:17.419Z,41.40
2023-02-13T05:43:03.161Z,42.22
2023-02-13T05:45:48.494Z,45.13
2023-02-13T05:48:34.251Z,50.67
2023-02-13T05:51:20.564Z,47.40
2023-02-13T05:54:06.155Z,46.75
2023-02-13T05:56:51.527Z,43.15
2023-02-13T05:59:37.368Z,41.00
2023-02-13T06:02:23.324Z,46.38
2023-02-13T06:05:08.720Z,47.63
2023-02-13T06:07:54.071Z,45.75
2023-02-13T06:10:39.928Z,47.40
2023-02-13T06:13:25.815Z,47.30
2023-02-13T06:16:12.450Z,42.88
2023-02-13T06:18:58.382Z,53.28
2023-02-13T06:21:43.650Z,45.35
2023-02-13T06:24:29.279Z,52.40
2023-02-13T06:27:14.787Z,50.55
2023-02-13T06:30:00.413Z,52.88
2023-02-13T06:32:47.114Z,57.58
2023-02-13T06:35:32.829Z,52.85
2023-02-13T06:38:21.536Z,53.30
2023-02-13T06:41:07.077Z,57.25
2023-02-13T06:43:52.505Z,53.10
2023-02-13T06:46:38.177Z,52.30
2023-02-13T06:49:23.618Z,62.17
2023-02-13T06:52:09.101Z,60.15
2023-02-13T06:54:54.695Z,60.15
2023-02-13T06:57:42.678Z,58.03
2023-02-13T07:00:28.444Z,53.03
2023-02-13T07:03:13.907Z,57.70
2023-02-13T07:05:59.751Z,60.97
2023-02-13T07:08:45.576Z,63.40
2023-02-13T07:11:31.746Z,61.22
2023-02-13T07:14:17.442Z,57.60
2023-02-13T07:17:02.729Z,58.63
2023-02-13T07:19:48.378Z,56.83
2023-02-13T07:22:34.041Z,58.38
2023-02-13T07:25:19.717Z,63.05
2023-02-13T07:28:07.085Z,57.38
2023-02-13T07:30:52.721Z,60.63
2023-02-13T07:33:42.155Z,62.88
2023-02-13T07:36:28.197Z,59.45
2023-02-13T07:39:13.824Z,57.85
2023-02-13T07:41:59.483Z,62.08
2023-02-13T07:44:44.939Z,62.58
2023-02-13T07:47:30.714Z,62.22
2023-02-13T07:50:16.708Z,66.07
2023-02-13T07:53:03.414Z,65.15
2023-02-13T07:55:49.020Z,62.20
2023-02-13T07:58:34.625Z,60.30
2023-02-13T08:01:20.215Z,58.05
2023-02-13T08:04:06.156Z,59.60
2023-02-13T08:06:53.862Z,60.88
2023-02-13T08:09:57.683Z,60.83
2023-02-13T08:12:43.672Z,62.72
2023-02-13T08:15:29.086Z,63.38
2023-02-13T08:18:14.861Z,60.47
2023-02-13T08:21:03.068Z,63.38
2023-02-13T08:23:48.899Z,58.58
2023-02-13T08:26:34.721Z,59.75
2023-02-13T08:29:20.089Z,71.50
2023-02-13T08:32:06.092Z,74.07
2023-02-13T08:34:52.339Z,74.38
2023-02-13T08:37:37.931Z,75.15
2023-02-13T08:40:25.438Z,79.65
2023-02-13T08:43:12.806Z,70.82
2023-02-13T08:46:02.782Z,70.22
2023-02-13T08:48:49.672Z,72.60
2023-02-13T08:51:38.104Z,68.72
2023-02-13T08:54:27.916Z,64.10
2023-02-13T08:57:14.605Z,60.50
2023-02-13T09:00:00.393Z,60.28
2023-02-13T09:02:45.741Z,58.83
2023-02-13T09:05:36.777Z,57.22
2023-02-13T09:08:33.649Z,58.97
2023-02-13T09:11:23.032Z,51.53
2023-02-13T09:14:08.877Z,52.85
2023-02-13T09:16:54.556Z,48.20
2023-02-13T09:19:40.499Z,41.80
2023-02-13T09:22:25.917Z,43.75
2023-02-13T09:25:11.498Z,41.75
2023-02-13T09:27:57.218Z,36.35
2023-02-13T09:30:43.208Z,35.60
2023-02-13T09:33:28.902Z,27.58
2023-02-13T09:36:19.353Z,27.67
2023-02-13T09:39:04.884Z,26.63
2023-02-13T09:41:53.827Z,29.90
2023-02-13T09:44:43.485Z,28.95
2023-02-13T09:47:39.351Z,24.67
2023-02-13T09:50:29.640Z,25.10
2023-02-13T09:53:23.422Z,25.58
2023-02-13T09:56:34.010Z,29.05
2023-02-13T09:59:24.172Z,25.58
2023-02-13T10:02:31.926Z,25.42
2023-02-13T10:05:36.136Z,26.00
2023-02-13T10:08:34.002Z,23.98
2023-02-13T10:11:37.665Z,25.25
2023-02-13T10:15:01.610Z,27.90
2023-02-13T10:17:53.921Z,23.92
2023-02-13T10:20:56.951Z,22.75
2023-02-13T10:23:50.290Z,24.10
2023-02-13T10:26:46.500Z,24.05
2023-02-13T10:30:12.460Z,23.80
2023-02-13T10:33:19.978Z,23.50
2023-02-13T10:36:16.980Z,21.45
2023-02-13T10:39:22.146Z,23.33
2023-02-13T10:42:07.882Z,22.75
2023-02-13T10:44:56.567Z,24.92
2023-02-13T10:48:00.617Z,22.40
2023-02-13T10:51:20.604Z,23.60
2023-02-13T10:54:18.396Z,24.33
2023-02-13T10:57:06.938Z,22.30
2023-02-13T10:59:58.269Z,24.30
2023-02-13T11:02:43.772Z,22.92
2023-02-13T11:05:40.495Z,21.33
2023-02-13T11:08:29.013Z,22.08
2023-02-13T11:11:35.889Z,21.65
2023-02-13T11:14:26.808Z,26.00
2023-02-13T11:17:18.266Z,19.95
2023-02-13T11:20:25.804Z,20.85
2023-02-13T11:23:20.598Z,20.85
2023-02-13T11:26:07.906Z,20.85
2023-02-13T11:28:58.033Z,21.35
2023-02-13T11:31:44.325Z,21.95
2023-02-13T11:34:32.058Z,21.80
2023-02-13T11:37:23.807Z,22.02
2023-02-13T11:40:32.430Z,19.90
2023-02-13T11:43:35.499Z,23.40
2023-02-13T11:49:25.308Z,20.35
2023-02-13T11:52:34.159Z,21.48
2023-02-13T11:55:40.332Z,20.70
2023-02-13T11:58:28.879Z,20.90
2023-02-13T12:01:20.504Z,21.67
2023-02-13T12:04:26.638Z,21.80
2023-02-13T12:07:29.362Z,19.85
2023-02-13T12:10:15.243Z,19.58
2023-02-13T12:13:21.821Z,19.77
2023-02-13T12:16:27.373Z,20.23
2023-02-13T12:19:35.619Z,19.65
2023-02-13T12:22:44.788Z,21.15
2023-02-13T12:25:52.914Z,21.10
2023-02-13T12:29:34.259Z,21.70
2023-02-13T12:32:28.986Z,23.77
2023-02-13T12:35:45.772Z,19.77
2023-02-13T12:38:40.538Z,21.73
2023-02-13T12:41:39.464Z,20.92
2023-02-13T12:44:50.590Z,21.92
2023-02-13T12:47:57.270Z,18.60
2023-02-13T12:50:53.902Z,21.08
2023-02-13T12:54:01.202Z,20.60
2023-02-13T12:57:14.253Z,20.33
2023-02-13T13:00:18.581Z,21.43
2023-02-13T13:03:07.012Z,21.90
2023-02-13T13:06:27.380Z,22.17
2023-02-13T13:09:19.259Z,22.85
2023-02-13T13:12:18.363Z,20.88
2023-02-13T13:15:36.316Z,21.85
2023-02-13T13:18:39.225Z,23.65
2023-02-13T13:21:41.540Z,20.58
2023-02-13T13:24:51.288Z,23.65
2023-02-13T13:27:44.231Z,20.30
2023-02-13T13:33:22.471Z,20.20
2023-02-13T13:36:44.382Z,22.42
2023-02-13T13:39:55.209Z,21.88
2023-02-13T13:43:18.264Z,22.42
2023-02-13T13:46:24.765Z,22.67
2023-02-13T13:49:22.495Z,19.83
2023-02-13T13:52:34.817Z,22.40
2023-02-13T13:55:58.792Z,21.83
2023-02-13T13:58:46.525Z,19.45
2023-02-13T14:01:32.247Z,20.73
2023-02-13T14:04:33.567Z,20.63
2023-02-13T14:07:24.638Z,19.75
2023-02-13T14:10:22.196Z,19.42
2023-02-13T14:13:08.539Z,19.23
2023-02-13T14:15:55.125Z,18.75
2023-02-13T14:18:46.780Z,18.70
2023-02-13T14:21:32.742Z,18.23
2023-02-13T14:24:20.831Z,20.85
2023-02-13T14:27:06.551Z,22.13
2023-02-13T14:29:52.175Z,18.60
2023-02-13T14:32:41.294Z,20.23
2023-02-13T14:35:31.182Z,18.42
2023-02-13T14:38:24.748Z,20.73
2023-02-13T14:41:43.874Z,21.20
2023-02-13T14:44:34.374Z,20.98
2023-02-13T14:47:20.111Z,19.83
2023-02-13T14:50:08.038Z,20.50
2023-02-13T14:52:55.270Z,22.48
2023-02-13T14:55:45.265Z,22.17
2023-02-13T14:58:33.789Z,22.73
2023-02-13T15:01:33.524Z,22.80
2023-02-13T15:04:37.830Z,21.73
2023-02-13T15:07:27.639Z,22.73
2023-02-13T15:10:49.463Z,22.05
2023-02-13T15:13:40.928Z,22.00
2023-02-13T15:16:26.739Z,24.63
2023-02-13T15:19:17.882Z,20.15
2023-02-13T15:22:06.031Z,20.50
2023-02-13T15:24:52.432Z,21.02
2023-02-13T15:27:44.189Z,21.98
2023-02-13T15:30:36.320Z,21.88
2023-02-13T15:33:24.428Z,21.00
2023-02-13T15:36:21.877Z,21.35
2023-02-13T15:39:10.277Z,20.85
2023-02-13T15:41:59.694Z,24.98
2023-02-13T15:44:48.216Z,27.55
2023-02-13T15:47:34.606Z,25.30
2023-02-13T15:50:35.279Z,25.58
2023-02-13T15:53:22.169Z,24.45
2023-02-13T15:56:15.188Z,26.88
2023-02-13T15:59:01.536Z,24.15
2023-02-13T16:01:49.764Z,23.13
2023-02-13T16:04:36.924Z,23.45
2023-02-13T16:07:22.953Z,28.85
2023-02-13T16:10:27.035Z,22.83
2023-02-13T16:13:18.104Z,26.27
2023-02-13T16:16:09.587Z,24.88
2023-02-13T16:18:55.545Z,27.75
2023-02-13T16:21:41.545Z,28.27
2023-02-13T16:24:28.373Z,26.50
2023-02-13T16:27:16.270Z,33.70
2023-02-13T16:30:05.284Z,26.55
2023-02-13T16:32:51.172Z,26.77
2023-02-13T16:35:57.167Z,26.45
2023-02-13T16:38:50.359Z,27.67
2023-02-13T16:41:36.048Z,26.77
2023-02-13T16:44:32.559Z,31.75
2023-02-13T16:47:24.309Z,28.75
2023-02-13T16:50:16.075Z,29.00
2023-02-13T16:53:05.002Z,28.05
2023-02-13T16:56:55.765Z,26.50
2023-02-13T16:59:48.655Z,27.45
2023-02-13T17:02:40.838Z,28.00
2023-02-13T17:05:31.722Z,28.27
2023-02-13T17:08:17.211Z,30.88
2023-02-13T17:11:06.119Z,28.92
2023-02-13T17:13:51.932Z,25.65
2023-02-13T17:16:38.029Z,29.55
2023-02-13T17:19:24.002Z,28.38
2023-02-13T17:22:23.774Z,31.08
2023-02-13T17:25:17.522Z,33.25
2023-02-13T17:28:15.616Z,35.47
2023-02-13T17:31:12.443Z,41.08
2023-02-13T17:33:58.666Z,38.67
2023-02-13T17:36:43.978Z,31.88
2023-02-13T17:39:29.521Z,34.38
2023-02-13T17:42:27.586Z,30.17
2023-02-13T17:45:17.443Z,36.10
2023-02-13T17:48:02.652Z,38.35
2023-02-13T17:50:50.409Z,34.75
2023-02-13T17:53:36.902Z,31.17
2023-02-13T17:56:23.068Z,36.17
2023-02-13T17:59:08.547Z,33.70
2023-02-13T18:01:53.718Z,34.63
2023-02-13T18:04:39.373Z,39.70
2023-02-13T18:07:25.146Z,36.80
2023-02-13T18:10:23.554Z,39.58
2023-02-13T18:13:09.574Z,35.10
2023-02-13T18:15:55.069Z,46.40
2023-02-13T18:18:41.080Z,41.03
2023-02-13T18:21:26.551Z,40.35
2023-02-13T18:24:12.039Z,43.33
2023-02-13T18:26:58.098Z,42.20
2023-02-13T18:29:44.953Z,41.95
2023-02-13T18:32:30.795Z,45.85
2023-02-13T18:35:17.609Z,40.03
2023-02-13T18:38:03.350Z,36.92
2023-02-13T18:40:49.141Z,43.30
2023-02-13T18:43:35.016Z,41.70
2023-02-13T18:46:23.762Z,43.97
2023-02-13T18:49:10.989Z,48.67
2023-02-13T18:51:57.208Z,45.20
2023-02-13T18:54:42.748Z,42.38
2023-02-13T18:57:28.062Z,42.03
2023-02-13T19:00:14.479Z,43.70
2023-02-13T19:03:00.309Z,43.70
2023-02-13T19:05:45.839Z,43.00
2023-02-13T19:08:31.483Z,47.55
2023-02-13T19:11:24.192Z,47.17
2023-02-13T19:14:13.831Z,42.33
2023-02-13T19:16:59.425Z,42.10
2023-02-13T19:19:46.511Z,42.92
2023-02-13T19:22:32.149Z,42.38
2023-02-13T19:25:18.942Z,44.22
2023-02-13T19:28:04.503Z,44.60
2023-02-13T19:30:50.165Z,39.38
2023-02-13T19:33:37.446Z,43.05
2023-02-13T19:36:25.553Z,47.60
2023-02-13T19:39:11.254Z,45.33
2023-02-13T19:41:56.883Z,40.92
2023-02-13T19:44:46.263Z,44.13
2023-02-13T19:47:31.961Z,39.83
2023-02-13T19:50:18.489Z,44.67
2023-02-13T19:53:05.816Z,41.78
2023-02-13T19:55:59.415Z,48.03
2023-02-13T19:58:45.095Z,50.78
2023-02-13T20:01:31.090Z,47.97
2023-02-13T20:04:16.644Z,50.47
2023-02-13T20:07:02.164Z,49.47
2023-02-13T20:09:47.875Z,46.65
2023-02-13T20:12:33.768Z,45.22
2023-02-13T20:15:20.383Z,44.70
2023-02-13T20:18:06.491Z,43.63
2023-02-13T20:20:53.397Z,45.75
2023-02-13T20:23:39.024Z,43.67
2023-02-13T20:26:24.448Z,39.50
2023-02-13T20:29:10.238Z,41.25
2023-02-13T20:31:56.214Z,40.60
2023-02-13T20:34:58.186Z,44.55
2023-02-13T20:37:45.252Z,38.13
2023-02-13T20:40:30.922Z,43.65
2023-02-13T20:43:16.198Z,41.38
2023-02-13T20:46:01.985Z,40.78
2023-02-13T20:48:48.549Z,44.45
2023-02-13T20:51:34.636Z,41.22
2023-02-13T20:54:20.319Z,44.63
2023-02-13T20:57:06.497Z,39.13
2023-02-13T20:59:52.264Z,41.25
2023-02-13T21:02:37.611Z,39.92
2023-02-13T21:05:23.372Z,40.53
2023-02-13T21:08:09.375Z,44.85
2023-02-13T21:11:05.002Z,42.45
2023-02-13T21:13:50.614Z,43.10
2023-02-13T21:16:38.884Z,42.40
2023-02-13T21:19:24.707Z,44.15
2023-02-13T21:22:13.482Z,41.38
2023-02-13T21:24:59.192Z,39.80
2023-02-13T21:27:44.929Z,39.60
2023-02-13T21:30:30.541Z,45.10
2023-02-13T21:33:16.414Z,43.63
2023-02-13T21:36:04.601Z,43.10
2023-02-13T21:38:50.537Z,39.90
2023-02-13T21:41:39.118Z,45.03
2023-02-13T21:44:29.205Z,46.20
2023-02-13T21:47:16.272Z,44.58
2023-02-13T21:50:02.171Z,47.90
2023-02-13T21:52:48.060Z,45.67
2023-02-13T21:55:34.201Z,44.00
2023-02-13T21:58:19.654Z,49.08
2023-02-13T22:01:20.352Z,47.10
2023-02-13T22:04:10.957Z,52.85
2023-02-13T22:06:57.510Z,47.90
2023-02-13T22:09:43.398Z,51.60
2023-02-13T22:12:30.309Z,54.30
2023-02-13T22:15:16.521Z,49.72
2023-02-13T22:18:02.452Z,55.53
2023-02-13T22:20:48.390Z,51.42
2023-02-13T22:23:36.792Z,53.15
2023-02-13T22:26:25.726Z,49.92
2023-02-13T22:29:14.841Z,54.92
2023-02-13T22:32:00.525Z,52.88
2023-02-13T22:34:46.005Z,53.40
2023-02-13T22:37:32.221Z,53.05
2023-02-13T22:40:19.301Z,54.63
2023-02-13T22:43:05.713Z,54.42
2023-02-13T22:45:50.938Z,53.55
2023-02-13T22:48:37.052Z,56.90
2023-02-13T22:51:28.984Z,58.10
2023-02-13T22:54:14.632Z,60.05
2023-02-13T22:57:00.460Z,54.10
2023-02-13T22:59:46.192Z,54.97
2023-02-13T23:02:32.096Z,62.47
2023-02-13T23:05:18.505Z,58.85
2023-02-13T23:08:07.293Z,57.78
2023-02-13T23:11:12.579Z,63.75
2023-02-13T23:13:58.093Z,56.10
2023-02-13T23:17:02.694Z,66.55
2023-02-13T23:19:48.596Z,60.03
2023-02-13T23:22:35.180Z,61.17
2023-02-13T23:25:21.787Z,60.50
2023-02-13T23:28:07.181Z,66.65
2023-02-13T23:30:52.763Z,56.35
2023-02-13T23:33:38.687Z,69.32
2023-02-13T23:36:24.558Z,60.20
2023-02-13T23:39:10.562Z,63.42
2023-02-13T23:41:56.404Z,63.30
2023-02-13T23:44:41.925Z,75.05
2023-02-13T23:47:27.414Z,67.05
2023-02-13T23:50:16.036Z,63.85
2023-02-13T23:53:01.804Z,64.10
2023-02-13T23:55:48.681Z,61.80
2023-02-13T23:58:35.035Z,68.07
